Carson, Washington
Current Conditions -  °F | °C
As of 2:39 AM on Monday 20 Oct 2014 (Local Time) from K4S2 Reporting Station
Scattered Clouds Scattered Clouds  
Wind Chill: 54°   Ceiling: Unl
Heat Index: 54°   Visibility: 10mi
Dew Point: 52°   Wind: 0mph
Humidity: 94%   Direction: NA
Pressure: 29.73"   Gusts: NA
Location:  45.72°N, 121.82°W
Report Text: K4S2 200939Z AUTO 00000KT 10SM SCT100 12/11 A2973 RMK AO2 SLP071 T01200110
Loading
Personal Weather Stations






























Interactive Weather Map
Tropical Storm Tracking
New forecast layout! Learn more

10-Day Weather Forecast

Advertisements
Track Severe Weather on mobile